createdAt,value
2023-05-03T00:00:49.945Z,4.40
2023-05-03T00:05:51.214Z,4.38
2023-05-03T00:10:59.227Z,4.63
2023-05-03T00:16:01.003Z,4.90
2023-05-03T00:21:02.363Z,4.57
2023-05-03T00:26:03.716Z,4.37
2023-05-03T00:31:09.475Z,4.13
2023-05-03T00:36:11.639Z,4.40
2023-05-03T00:41:15.859Z,3.95
2023-05-03T00:46:17.800Z,4.85
2023-05-03T00:51:20.586Z,4.33
2023-05-03T00:56:23.350Z,5.05
2023-05-03T01:01:25.144Z,4.50
2023-05-03T01:06:35.395Z,4.30
2023-05-03T01:11:36.838Z,3.78
2023-05-03T01:16:38.192Z,4.40
2023-05-03T01:21:42.604Z,4.57
2023-05-03T01:26:43.871Z,4.57
2023-05-03T01:31:57.507Z,4.05
2023-05-03T01:36:59.460Z,4.18
2023-05-03T01:42:02.146Z,3.90
2023-05-03T01:47:03.446Z,4.55
2023-05-03T01:52:04.860Z,4.77
2023-05-03T01:57:06.249Z,4.20
2023-05-03T02:02:07.555Z,4.18
2023-05-03T02:07:09.324Z,4.67
2023-05-03T02:12:11.555Z,4.32
2023-05-03T02:17:12.890Z,4.30
2023-05-03T02:22:14.317Z,3.95
2023-05-03T02:27:15.782Z,4.07
2023-05-03T02:32:17.188Z,4.03
2023-05-03T02:37:18.498Z,4.28
2023-05-03T02:42:19.885Z,3.90
2023-05-03T02:47:21.484Z,4.60
2023-05-03T02:52:22.848Z,3.75
2023-05-03T02:57:24.173Z,4.53
2023-05-03T03:02:26.141Z,3.45
2023-05-03T03:07:27.546Z,4.57
2023-05-03T03:12:29.423Z,3.88
2023-05-03T03:17:32.112Z,4.72
2023-05-03T03:22:33.445Z,4.50
2023-05-03T03:27:35.261Z,4.70
2023-05-03T03:32:37.645Z,4.43
2023-05-03T03:37:39.975Z,4.20
2023-05-03T03:42:41.341Z,4.22
2023-05-03T03:47:42.661Z,4.23
2023-05-03T03:52:43.915Z,4.30
2023-05-03T03:57:45.736Z,4.47
2023-05-03T04:02:47.524Z,4.57
2023-05-03T04:07:49.466Z,4.22
2023-05-03T04:12:50.830Z,4.20
2023-05-03T04:17:52.156Z,4.43
2023-05-03T04:22:53.495Z,5.17
2023-05-03T04:27:55.636Z,4.57
2023-05-03T04:32:59.654Z,4.70
2023-05-03T04:38:01.675Z,5.10
2023-05-03T04:43:03.350Z,4.50
2023-05-03T04:48:05.568Z,4.83
2023-05-03T04:53:07.401Z,5.18
2023-05-03T04:58:08.712Z,5.65
2023-05-03T05:03:10.130Z,5.23
2023-05-03T05:08:11.947Z,5.35
2023-05-03T05:13:13.251Z,4.87
2023-05-03T05:18:14.545Z,4.78
2023-05-03T05:23:16.221Z,5.15
2023-05-03T05:28:17.751Z,5.53
2023-05-03T05:33:19.396Z,4.90
2023-05-03T05:38:20.747Z,5.10
2023-05-03T05:43:22.339Z,5.40
2023-05-03T05:48:23.650Z,5.60
2023-05-03T05:53:25.086Z,5.30
2023-05-03T05:58:26.690Z,5.20
2023-05-03T06:03:28.138Z,5.63
2023-05-03T06:08:29.563Z,5.78
2023-05-03T06:13:32.116Z,5.65
2023-05-03T06:18:33.436Z,5.17
2023-05-03T06:23:35.298Z,5.30
2023-05-03T06:28:36.633Z,5.40
2023-05-03T06:33:38.115Z,4.40
2023-05-03T06:38:39.618Z,5.10
2023-05-03T06:43:40.939Z,4.87
2023-05-03T06:48:42.261Z,4.85
2023-05-03T06:53:43.644Z,5.03
2023-05-03T06:58:44.931Z,4.60
2023-05-03T07:03:47.024Z,4.70
2023-05-03T07:08:48.743Z,6.13
2023-05-03T07:13:51.299Z,5.67
2023-05-03T07:18:52.789Z,5.55
2023-05-03T07:23:54.071Z,5.22
2023-05-03T07:28:55.355Z,5.90
2023-05-03T07:33:56.761Z,4.97
2023-05-03T07:38:58.727Z,5.20
2023-05-03T07:44:00.170Z,5.30
2023-05-03T07:49:02.256Z,5.60
2023-05-03T07:54:04.257Z,4.93
2023-05-03T07:59:09.908Z,5.35
2023-05-03T08:04:11.995Z,5.47
2023-05-03T08:09:13.986Z,5.70
2023-05-03T08:14:15.583Z,5.70
2023-05-03T08:19:16.856Z,5.37
2023-05-03T08:24:18.138Z,5.82
2023-05-03T08:29:19.430Z,5.85
2023-05-03T08:34:20.762Z,5.53
2023-05-03T08:39:22.031Z,6.00
2023-05-03T08:44:24.261Z,5.28
2023-05-03T08:49:25.899Z,6.18
2023-05-03T08:54:27.251Z,5.97
2023-05-03T08:59:29.501Z,5.60
2023-05-03T09:04:34.656Z,5.90
2023-05-03T09:09:36.612Z,6.63
2023-05-03T09:14:47.156Z,5.68
2023-05-03T09:19:55.633Z,6.32
2023-05-03T09:25:00.611Z,5.80
2023-05-03T09:30:16.925Z,6.23
2023-05-03T09:35:18.590Z,6.13
2023-05-03T09:40:20.334Z,6.22
2023-05-03T09:45:24.446Z,5.83
2023-05-03T09:50:26.445Z,5.75
2023-05-03T09:55:28.155Z,6.55
2023-05-03T10:00:30.728Z,6.37
2023-05-03T10:05:33.314Z,5.68
2023-05-03T10:10:35.271Z,6.00
2023-05-03T10:15:38.344Z,5.80
2023-05-03T10:20:45.306Z,6.30
2023-05-03T10:26:05.367Z,5.72
2023-05-03T10:31:07.210Z,8.02
2023-05-03T10:36:13.146Z,5.90
2023-05-03T10:41:23.986Z,6.45
2023-05-03T10:46:32.941Z,6.38
2023-05-03T10:51:37.022Z,8.20
2023-05-03T10:56:48.850Z,5.60
2023-05-03T11:01:51.633Z,5.47
2023-05-03T11:06:56.669Z,5.77
2023-05-03T11:11:58.694Z,5.63
2023-05-03T11:17:01.186Z,6.22
2023-05-03T11:22:02.752Z,5.32
2023-05-03T11:27:08.046Z,5.23
2023-05-03T11:32:10.606Z,6.00
2023-05-03T11:37:12.142Z,5.70
2023-05-03T11:42:13.474Z,6.17
2023-05-03T11:47:14.857Z,5.22
2023-05-03T11:52:20.100Z,5.60
2023-05-03T11:57:21.759Z,5.07
2023-05-03T12:02:24.605Z,5.03
2023-05-03T12:07:27.123Z,5.32
2023-05-03T12:12:32.507Z,5.35
2023-05-03T12:17:38.703Z,5.07
2023-05-03T12:22:41.005Z,4.65
2023-05-03T12:27:43.686Z,5.32
2023-05-03T12:32:46.137Z,4.63
2023-05-03T12:37:49.639Z,4.65
2023-05-03T12:42:51.107Z,4.35
2023-05-03T12:47:53.176Z,4.73
2023-05-03T12:52:54.821Z,4.70
2023-05-03T12:58:22.150Z,4.65
2023-05-03T13:03:21.273Z,5.22
2023-05-03T13:08:33.124Z,4.70
2023-05-03T13:13:35.517Z,4.03
2023-05-03T13:18:37.166Z,4.18
2023-05-03T13:23:38.444Z,4.13
2023-05-03T13:28:42.648Z,4.38
2023-05-03T13:33:45.087Z,3.88
2023-05-03T13:38:46.683Z,4.13
2023-05-03T13:43:48.062Z,4.10
2023-05-03T13:48:49.460Z,4.47
2023-05-03T13:53:50.960Z,4.07
2023-05-03T13:58:52.350Z,4.47
2023-05-03T14:03:54.603Z,4.50
2023-05-03T14:08:57.785Z,4.20
2023-05-03T14:14:02.227Z,4.97
2023-05-03T14:19:03.760Z,4.13
2023-05-03T14:24:06.393Z,4.10
2023-05-03T14:29:10.558Z,3.90
2023-05-03T14:34:12.122Z,4.23
2023-05-03T14:39:16.544Z,3.85
2023-05-03T14:44:17.859Z,3.95
2023-05-03T14:49:19.521Z,4.23
2023-05-03T14:54:23.042Z,3.78
2023-05-03T14:59:24.370Z,3.58
2023-05-03T15:04:25.659Z,3.53
2023-05-03T15:09:28.217Z,3.67
2023-05-03T15:14:29.602Z,3.78
2023-05-03T15:19:30.989Z,3.53
2023-05-03T15:24:32.342Z,3.43
2023-05-03T15:29:35.058Z,3.70
2023-05-03T15:34:37.228Z,3.45
2023-05-03T15:39:38.716Z,3.47
2023-05-03T15:44:39.983Z,4.00
2023-05-03T15:49:41.290Z,3.55
2023-05-03T15:54:42.753Z,3.50
2023-05-03T15:59:44.805Z,3.47
2023-05-03T16:04:47.077Z,3.50
2023-05-03T16:09:49.598Z,3.33
2023-05-03T16:14:50.865Z,3.03
2023-05-03T16:19:52.169Z,3.03
2023-05-03T16:24:53.673Z,3.33
2023-05-03T16:29:54.990Z,2.90
2023-05-03T16:34:56.799Z,2.92
2023-05-03T16:39:58.329Z,3.30
2023-05-03T16:44:59.669Z,3.30
2023-05-03T16:50:01.225Z,3.00
2023-05-03T16:55:02.545Z,2.78
2023-05-03T17:00:11.153Z,3.00
2023-05-03T17:05:13.554Z,3.30
2023-05-03T17:10:14.802Z,2.70
2023-05-03T17:15:16.969Z,2.35
2023-05-03T17:20:18.603Z,2.70
2023-05-03T17:25:19.972Z,2.40
2023-05-03T17:30:21.613Z,2.40
2023-05-03T17:35:22.936Z,2.80
2023-05-03T17:40:25.138Z,2.72
2023-05-03T17:45:28.027Z,2.40
2023-05-03T17:50:29.377Z,2.73
2023-05-03T17:55:33.694Z,2.60
2023-05-03T18:00:35.037Z,2.35
2023-05-03T18:05:37.221Z,2.22
2023-05-03T18:10:41.084Z,2.40
2023-05-03T18:15:45.346Z,2.20
2023-05-03T18:20:46.723Z,2.50
2023-05-03T18:25:48.219Z,2.30
2023-05-03T18:30:58.394Z,2.47
2023-05-03T18:35:59.708Z,2.28
2023-05-03T18:41:01.018Z,2.33
2023-05-03T18:46:02.899Z,2.30
2023-05-03T18:51:04.751Z,2.45
2023-05-03T18:56:06.172Z,2.50
2023-05-03T19:01:07.522Z,2.57
2023-05-03T19:06:09.008Z,2.15
2023-05-03T19:11:14.333Z,2.17
2023-05-03T19:16:16.183Z,2.50
2023-05-03T19:21:17.633Z,2.28
2023-05-03T19:26:18.942Z,2.20
2023-05-03T19:31:20.559Z,2.23
2023-05-03T19:36:21.919Z,2.33
2023-05-03T19:41:23.584Z,2.05
2023-05-03T19:46:25.313Z,2.27
2023-05-03T19:51:27.805Z,2.30
2023-05-03T19:56:29.130Z,2.30
2023-05-03T20:01:30.931Z,2.10
2023-05-03T20:06:32.214Z,2.00
2023-05-03T20:11:33.508Z,2.38
2023-05-03T20:16:38.922Z,2.00
2023-05-03T20:21:40.495Z,2.22
2023-05-03T20:26:41.909Z,2.20
2023-05-03T20:31:44.346Z,2.10
2023-05-03T20:36:46.607Z,2.08
2023-05-03T20:41:47.882Z,2.25
2023-05-03T20:46:49.491Z,2.60
2023-05-03T20:51:50.830Z,2.00
2023-05-03T20:56:52.115Z,2.38
2023-05-03T21:01:53.377Z,2.30
2023-05-03T21:06:54.809Z,2.22
2023-05-03T21:11:56.284Z,2.60
2023-05-03T21:16:57.699Z,2.53
2023-05-03T21:21:59.184Z,3.20
2023-05-03T21:27:00.457Z,3.80
2023-05-03T21:32:01.814Z,4.20
2023-05-03T21:37:03.698Z,4.60
2023-05-03T21:42:05.076Z,3.80
2023-05-03T21:47:06.720Z,3.58
2023-05-03T21:52:08.006Z,3.33
2023-05-03T21:57:09.300Z,3.60
2023-05-03T22:02:10.576Z,3.85
2023-05-03T22:07:11.879Z,3.70
2023-05-03T22:12:23.328Z,3.45
2023-05-03T22:17:26.520Z,3.60
2023-05-03T22:22:27.894Z,3.33
2023-05-03T22:27:29.204Z,3.42
2023-05-03T22:32:30.800Z,3.40
2023-05-03T22:37:32.098Z,3.50
2023-05-03T22:42:33.381Z,3.40
2023-05-03T22:47:34.692Z,3.70
2023-05-03T22:52:36.260Z,3.35
2023-05-03T22:57:37.567Z,3.70
2023-05-03T23:02:39.036Z,3.60
2023-05-03T23:07:41.567Z,3.33
2023-05-03T23:12:42.943Z,3.33
2023-05-03T23:17:44.568Z,3.10
2023-05-03T23:22:45.898Z,3.50
2023-05-03T23:27:48.013Z,3.30
2023-05-03T23:32:49.703Z,3.80
2023-05-03T23:37:51.617Z,3.35
2023-05-03T23:42:52.984Z,3.92
2023-05-03T23:47:54.323Z,3.70
2023-05-03T23:52:58.580Z,3.58
2023-05-03T23:57:59.859Z,4.13
